createdAt,value
2018-12-13T00:02:30.000Z,27.57
2018-12-13T00:05:00.800Z,28.30
2018-12-13T00:07:31.044Z,29.47
2018-12-13T00:10:01.941Z,29.70
2018-12-13T00:12:36.846Z,28.57
2018-12-13T00:15:10.149Z,28.90
2018-12-13T00:17:39.984Z,29.27
2018-12-13T00:20:11.826Z,29.13
2018-12-13T00:22:43.404Z,27.87
2018-12-13T00:25:19.829Z,28.20
2018-12-13T00:27:52.841Z,29.63
2018-12-13T00:30:23.227Z,28.83
2018-12-13T00:32:54.310Z,27.67
2018-12-13T00:35:29.076Z,29.17
2018-12-13T00:38:04.197Z,27.50
2018-12-13T00:40:34.857Z,28.70
2018-12-13T00:43:05.463Z,28.23
2018-12-13T00:45:36.112Z,29.30
2018-12-13T00:48:11.011Z,30.30
2018-12-13T00:50:43.346Z,29.00
2018-12-13T00:53:13.981Z,29.93
2018-12-13T00:55:43.892Z,30.67
2018-12-13T00:58:17.247Z,31.03
2018-12-13T01:00:47.090Z,30.07
2018-12-13T01:03:22.230Z,29.63
2018-12-13T01:05:56.099Z,31.10
2018-12-13T01:08:32.319Z,30.63
2018-12-13T01:11:03.417Z,31.33
2018-12-13T01:13:35.309Z,31.13
2018-12-13T01:16:09.284Z,30.73
2018-12-13T01:18:39.536Z,30.97
2018-12-13T01:21:09.474Z,29.63
2018-12-13T01:23:39.380Z,30.30
2018-12-13T01:26:10.454Z,31.43
2018-12-13T01:28:41.213Z,28.50
2018-12-13T01:31:14.043Z,31.20
2018-12-13T01:33:43.711Z,29.90
2018-12-13T01:36:19.307Z,31.50
2018-12-13T01:38:50.732Z,29.93
2018-12-13T01:41:22.047Z,30.73
2018-12-13T01:43:51.909Z,32.97
2018-12-13T01:46:23.377Z,32.53
2018-12-13T01:48:52.980Z,30.23
2018-12-13T01:51:23.480Z,31.03
2018-12-13T01:53:54.051Z,30.67
2018-12-13T01:56:24.673Z,30.50
2018-12-13T01:58:55.628Z,32.07
2018-12-13T02:01:26.449Z,30.90
2018-12-13T02:03:56.474Z,33.00
2018-12-13T02:06:26.466Z,33.47
2018-12-13T02:08:56.751Z,33.10
2018-12-13T02:11:28.578Z,31.70
2018-12-13T02:13:58.559Z,33.00
2018-12-13T02:16:29.455Z,34.40
2018-12-13T02:19:00.075Z,33.27
2018-12-13T02:21:30.481Z,33.47
2018-12-13T02:24:01.801Z,34.37
2018-12-13T02:26:31.968Z,34.47
2018-12-13T02:29:03.239Z,35.33
2018-12-13T02:31:33.444Z,35.20
2018-12-13T02:34:03.994Z,33.80
2018-12-13T02:36:34.796Z,34.47
2018-12-13T02:39:06.545Z,33.80
2018-12-13T02:41:36.714Z,31.80
2018-12-13T02:44:07.471Z,35.47
2018-12-13T02:46:37.749Z,33.70
2018-12-13T02:49:09.504Z,33.10
2018-12-13T02:51:39.306Z,34.17
2018-12-13T02:54:09.781Z,32.37
2018-12-13T02:56:39.630Z,35.00
2018-12-13T02:59:10.960Z,35.67
2018-12-13T03:01:40.901Z,33.43
2018-12-13T03:04:12.045Z,36.20
2018-12-13T03:06:41.671Z,32.90
2018-12-13T03:09:12.747Z,34.43
2018-12-13T03:11:43.048Z,34.13
2018-12-13T03:14:14.039Z,37.97
2018-12-13T03:16:43.642Z,37.37
2018-12-13T03:19:15.078Z,36.23
2018-12-13T03:21:46.434Z,35.70
2018-12-13T03:24:17.485Z,36.57
2018-12-13T03:26:47.214Z,35.03
2018-12-13T03:29:18.308Z,36.03
2018-12-13T03:31:48.524Z,35.60
2018-12-13T03:34:19.060Z,35.23
2018-12-13T03:36:50.560Z,35.50
2018-12-13T03:39:20.685Z,34.93
2018-12-13T03:41:51.252Z,36.73
2018-12-13T03:44:21.956Z,36.77
2018-12-13T03:46:53.547Z,37.90
2018-12-13T03:49:23.504Z,36.33
2018-12-13T03:51:53.250Z,37.50
2018-12-13T03:54:25.362Z,37.13
2018-12-13T03:56:56.538Z,36.53
2018-12-13T03:59:27.032Z,35.17
2018-12-13T04:01:57.041Z,38.80
2018-12-13T04:04:27.856Z,36.23
2018-12-13T04:06:58.747Z,35.90
2018-12-13T04:09:29.636Z,36.83
2018-12-13T04:11:59.732Z,36.73
2018-12-13T04:14:30.689Z,36.63
2018-12-13T04:17:00.893Z,37.90
2018-12-13T04:19:31.633Z,36.30
2018-12-13T04:22:02.345Z,35.90
2018-12-13T04:24:32.127Z,39.60
2018-12-13T04:27:03.634Z,37.73
2018-12-13T04:29:34.285Z,36.67
2018-12-13T04:32:05.369Z,36.03
2018-12-13T04:34:35.783Z,37.60
2018-12-13T04:37:06.155Z,39.07
2018-12-13T04:39:36.208Z,36.90
2018-12-13T04:42:08.374Z,37.23
2018-12-13T04:44:38.496Z,37.70
2018-12-13T04:47:08.321Z,38.73
2018-12-13T04:49:39.334Z,37.60
2018-12-13T04:52:10.357Z,36.30
2018-12-13T04:54:41.189Z,39.43
2018-12-13T04:57:12.272Z,39.93
2018-12-13T04:59:43.814Z,36.80
2018-12-13T05:02:13.717Z,39.53
2018-12-13T05:04:43.815Z,38.43
2018-12-13T05:07:19.904Z,38.47
2018-12-13T05:09:51.362Z,35.90
2018-12-13T05:12:23.076Z,38.67
2018-12-13T05:15:04.856Z,38.77
2018-12-13T05:17:35.575Z,39.67
2018-12-13T05:20:07.491Z,39.07
2018-12-13T05:22:39.244Z,38.97
2018-12-13T05:25:11.425Z,40.37
2018-12-13T05:27:45.486Z,37.97
2018-12-13T05:30:16.926Z,38.57
2018-12-13T05:32:47.733Z,39.37
2018-12-13T05:35:20.068Z,40.10
2018-12-13T05:37:50.647Z,39.13
2018-12-13T05:40:25.658Z,38.43
2018-12-13T05:42:55.763Z,39.80
2018-12-13T05:45:26.738Z,39.07
2018-12-13T05:47:56.600Z,38.40
2018-12-13T05:50:28.654Z,38.17
2018-12-13T05:52:58.630Z,39.93
2018-12-13T05:55:28.482Z,39.80
2018-12-13T05:57:59.559Z,39.23
2018-12-13T06:00:30.522Z,38.90
2018-12-13T06:03:01.368Z,40.83
2018-12-13T06:05:31.632Z,39.87
2018-12-13T06:08:02.510Z,39.83
2018-12-13T06:10:33.196Z,39.50
2018-12-13T06:13:03.638Z,37.13
2018-12-13T06:15:40.095Z,39.77
2018-12-13T06:18:11.563Z,38.27
2018-12-13T06:20:42.308Z,39.10
2018-12-13T06:23:14.231Z,41.00
2018-12-13T06:25:44.223Z,42.17
2018-12-13T06:28:20.877Z,40.20
2018-12-13T06:30:50.731Z,39.13
2018-12-13T06:33:24.822Z,39.13
2018-12-13T06:35:53.640Z,38.10
2018-12-13T06:38:24.872Z,40.30
2018-12-13T06:40:56.116Z,39.00
2018-12-13T06:43:26.775Z,39.30
2018-12-13T06:45:57.479Z,39.47
2018-12-13T06:48:27.888Z,39.13
2018-12-13T06:50:59.273Z,39.03
2018-12-13T06:53:29.636Z,39.07
2018-12-13T06:56:00.436Z,40.83
2018-12-13T06:58:30.253Z,39.70
2018-12-13T07:01:02.719Z,38.33
2018-12-13T07:03:32.865Z,38.70
2018-12-13T07:06:02.777Z,38.80
2018-12-13T07:08:34.783Z,38.03
2018-12-13T07:11:05.314Z,41.57
2018-12-13T07:13:35.798Z,40.30
2018-12-13T07:16:06.511Z,37.90
2018-12-13T07:18:36.982Z,41.47
2018-12-13T07:21:07.752Z,40.57
2018-12-13T07:23:38.167Z,40.60
2018-12-13T07:26:09.418Z,40.30
2018-12-13T07:28:39.218Z,42.40
2018-12-13T07:31:09.996Z,42.50
2018-12-13T07:33:41.056Z,44.60
2018-12-13T07:36:10.872Z,40.60
2018-12-13T07:38:40.764Z,41.53
2018-12-13T07:41:13.121Z,43.00
2018-12-13T07:43:43.094Z,43.67
2018-12-13T07:46:14.103Z,43.50
2018-12-13T07:48:44.055Z,42.80
2018-12-13T07:51:14.859Z,39.47
2018-12-13T07:53:44.456Z,41.50
2018-12-13T07:56:14.039Z,41.10
2018-12-13T07:58:44.946Z,41.87
2018-12-13T08:01:17.920Z,42.53
2018-12-13T08:03:48.908Z,42.87
2018-12-13T08:06:21.811Z,42.03
2018-12-13T08:08:53.954Z,43.47
2018-12-13T08:11:26.228Z,44.03
2018-12-13T08:13:58.931Z,40.10
2018-12-13T08:16:29.313Z,44.10
2018-12-13T08:19:00.123Z,42.13
2018-12-13T08:21:31.391Z,44.00
2018-12-13T08:24:01.368Z,41.73
2018-12-13T08:26:33.889Z,43.90
2018-12-13T08:29:05.569Z,42.80
2018-12-13T08:31:36.358Z,43.43
2018-12-13T08:34:06.248Z,43.77
2018-12-13T08:36:37.371Z,43.17
2018-12-13T08:39:10.013Z,43.17
2018-12-13T08:41:41.751Z,43.40
2018-12-13T08:44:13.100Z,42.80
2018-12-13T08:46:43.200Z,46.43
2018-12-13T08:49:13.608Z,44.00
2018-12-13T08:51:44.472Z,45.77
2018-12-13T08:54:15.670Z,45.67
2018-12-13T08:56:47.179Z,44.37
2018-12-13T08:59:19.471Z,45.43
2018-12-13T09:01:51.240Z,46.13
2018-12-13T09:04:21.191Z,44.07
2018-12-13T09:06:52.150Z,42.07
2018-12-13T09:09:22.859Z,44.90
2018-12-13T09:11:53.455Z,46.40
2018-12-13T09:14:24.443Z,42.50
2018-12-13T09:16:56.171Z,44.60
2018-12-13T09:19:25.903Z,45.33
2018-12-13T09:21:56.279Z,44.37
2018-12-13T09:24:27.259Z,45.90
2018-12-13T09:26:58.158Z,44.90
2018-12-13T09:29:28.211Z,45.03
2018-12-13T09:31:59.148Z,44.77
2018-12-13T09:34:29.255Z,45.10
2018-12-13T09:36:59.650Z,46.20
2018-12-13T09:39:30.497Z,46.43
2018-12-13T09:42:00.463Z,46.47
2018-12-13T09:44:31.396Z,46.10
2018-12-13T09:47:02.459Z,46.30
2018-12-13T09:49:32.807Z,45.53
2018-12-13T09:52:03.283Z,44.77
2018-12-13T09:54:33.500Z,41.73
2018-12-13T09:57:04.974Z,42.90
2018-12-13T09:59:35.373Z,43.93
2018-12-13T10:02:05.865Z,43.50
2018-12-13T10:04:36.657Z,43.67
2018-12-13T10:07:07.933Z,44.50
2018-12-13T10:09:37.855Z,44.43
2018-12-13T10:12:08.604Z,42.43
2018-12-13T10:14:39.144Z,44.13
2018-12-13T10:17:10.513Z,41.10
2018-12-13T10:19:40.791Z,40.80
2018-12-13T10:22:11.979Z,40.57
2018-12-13T10:24:42.467Z,39.50
2018-12-13T10:27:12.916Z,40.37
2018-12-13T10:29:43.472Z,42.20
2018-12-13T10:32:14.325Z,39.63
2018-12-13T10:34:44.275Z,42.20
2018-12-13T10:37:15.280Z,42.53
2018-12-13T10:39:51.536Z,41.80
2018-12-13T10:42:23.035Z,40.50
2018-12-13T10:44:53.332Z,40.67
2018-12-13T10:47:26.060Z,39.77
2018-12-13T10:49:58.035Z,40.40
2018-12-13T10:52:28.784Z,41.20
2018-12-13T10:55:01.436Z,38.20
2018-12-13T10:57:31.818Z,40.27
2018-12-13T11:00:01.969Z,40.67
2018-12-13T11:02:44.736Z,37.33
2018-12-13T11:05:17.477Z,37.60
2018-12-13T11:07:47.951Z,39.47
2018-12-13T11:10:25.296Z,40.87
2018-12-13T11:12:53.919Z,39.20
2018-12-13T11:15:24.946Z,39.27
2018-12-13T11:17:55.503Z,36.33
2018-12-13T11:20:25.981Z,39.73
2018-12-13T11:22:57.057Z,38.00
2018-12-13T11:25:27.180Z,39.40
2018-12-13T11:28:32.904Z,39.47
2018-12-13T11:31:08.946Z,39.10
2018-12-13T11:33:40.106Z,39.67
2018-12-13T11:36:09.931Z,40.70
2018-12-13T11:38:41.306Z,40.20
2018-12-13T11:41:11.151Z,39.60
2018-12-13T11:43:44.994Z,39.60
2018-12-13T11:46:16.172Z,38.63
2018-12-13T11:48:47.358Z,38.90
2018-12-13T11:51:19.512Z,38.83
2018-12-13T11:53:50.000Z,37.37
2018-12-13T11:56:20.712Z,35.57
2018-12-13T11:58:51.243Z,36.87
2018-12-13T12:01:22.366Z,38.10
2018-12-13T12:03:53.406Z,35.07
2018-12-13T12:06:23.308Z,33.27
2018-12-13T12:08:54.219Z,34.10
2018-12-13T12:11:24.764Z,34.53
2018-12-13T12:13:55.420Z,34.20
2018-12-13T12:16:26.826Z,36.30
2018-12-13T12:18:56.944Z,35.20
2018-12-13T12:21:27.792Z,34.90
2018-12-13T12:23:58.494Z,37.03
2018-12-13T12:26:29.712Z,35.77
2018-12-13T12:29:00.043Z,35.53
2018-12-13T12:31:32.058Z,37.07
2018-12-13T12:34:02.061Z,33.00
2018-12-13T12:36:32.384Z,37.77
2018-12-13T12:39:04.180Z,37.20
2018-12-13T12:41:33.984Z,37.00
2018-12-13T12:44:04.486Z,33.50
2018-12-13T12:46:40.314Z,34.53
2018-12-13T12:49:11.480Z,36.30
2018-12-13T12:51:42.277Z,35.40
2018-12-13T12:54:14.991Z,34.00
2018-12-13T12:56:45.135Z,33.10
2018-12-13T12:59:23.012Z,32.13
2018-12-13T13:01:53.966Z,32.37
2018-12-13T13:04:24.485Z,34.70
2018-12-13T13:06:55.241Z,33.50
2018-12-13T13:09:25.511Z,32.93
2018-12-13T13:11:57.380Z,32.20
2018-12-13T13:14:28.801Z,30.83
2018-12-13T13:17:00.934Z,29.13
2018-12-13T13:19:34.931Z,32.87
2018-12-13T13:22:06.733Z,31.13
2018-12-13T13:24:38.151Z,32.43
2018-12-13T13:27:11.144Z,30.53
2018-12-13T13:29:44.155Z,30.00
2018-12-13T13:32:22.279Z,32.80
2018-12-13T13:34:59.407Z,35.00
2018-12-13T13:37:32.302Z,31.13
2018-12-13T13:40:09.277Z,36.40
2018-12-13T13:42:42.545Z,31.30
2018-12-13T13:45:12.649Z,31.50
2018-12-13T13:47:45.522Z,31.40
2018-12-13T13:50:22.394Z,29.27
2018-12-13T13:52:53.424Z,29.10
2018-12-13T13:55:23.824Z,29.03
2018-12-13T13:57:54.666Z,29.43
2018-12-13T14:00:25.485Z,28.77
2018-12-13T14:02:56.035Z,31.00
2018-12-13T14:05:26.787Z,34.30
2018-12-13T14:07:57.449Z,29.80
2018-12-13T14:10:27.597Z,29.40
2018-12-13T14:12:57.548Z,29.47
2018-12-13T14:15:35.275Z,27.30
2018-12-13T14:18:07.102Z,28.87
2018-12-13T14:20:36.763Z,31.60
2018-12-13T14:23:09.049Z,50.90
2018-12-13T14:25:44.381Z,41.27
2018-12-13T14:28:25.441Z,30.30
2018-12-13T14:30:59.155Z,52.40
2018-12-13T14:33:31.933Z,32.50
2018-12-13T14:36:02.682Z,27.70
2018-12-13T14:38:33.303Z,24.57
2018-12-13T14:41:04.864Z,22.53
2018-12-13T14:43:34.819Z,24.10
2018-12-13T14:46:05.950Z,24.27
2018-12-13T14:48:37.071Z,24.97
2018-12-13T14:51:08.474Z,25.00
2018-12-13T14:53:40.893Z,25.53
2018-12-13T14:56:10.959Z,25.53
2018-12-13T14:58:42.742Z,25.50
2018-12-13T15:01:13.379Z,24.97
2018-12-13T15:03:43.521Z,23.83
2018-12-13T15:06:14.013Z,24.57
2018-12-13T15:08:43.815Z,24.77
2018-12-13T15:11:15.230Z,23.50
2018-12-13T15:13:45.061Z,23.17
2018-12-13T15:16:17.347Z,23.50
2018-12-13T15:18:47.621Z,24.60
2018-12-13T15:21:19.164Z,25.33
2018-12-13T15:23:49.091Z,25.07
2018-12-13T15:26:19.759Z,24.40
2018-12-13T15:28:50.504Z,25.63
2018-12-13T15:31:21.105Z,25.63
2018-12-13T15:33:51.208Z,43.00
2018-12-13T15:36:23.473Z,33.10
2018-12-13T15:38:54.973Z,33.43
2018-12-13T15:41:24.820Z,26.87
2018-12-13T15:43:56.012Z,22.27
2018-12-13T15:46:26.624Z,22.57
2018-12-13T15:48:57.096Z,21.27
2018-12-13T15:51:27.421Z,20.23
2018-12-13T15:53:57.241Z,19.50
2018-12-13T15:56:28.904Z,19.20
2018-12-13T15:58:59.539Z,19.57
2018-12-13T16:01:30.030Z,19.97
2018-12-13T16:04:01.170Z,19.00
2018-12-13T16:06:31.013Z,19.27
2018-12-13T16:09:02.074Z,18.53
2018-12-13T16:11:32.162Z,20.17
2018-12-13T16:14:03.488Z,20.50
2018-12-13T16:16:33.356Z,19.80
2018-12-13T16:19:04.552Z,21.73
2018-12-13T16:21:35.083Z,23.13
2018-12-13T16:24:05.758Z,21.67
2018-12-13T16:26:36.512Z,22.10
2018-12-13T16:29:06.694Z,21.37
2018-12-13T16:31:37.465Z,21.20
2018-12-13T16:34:10.553Z,22.10
2018-12-13T16:36:41.493Z,21.63
2018-12-13T16:39:12.789Z,21.30
2018-12-13T16:41:44.596Z,23.27
2018-12-13T16:44:16.522Z,23.37
2018-12-13T16:46:48.240Z,23.63
2018-12-13T16:49:19.247Z,22.77
2018-12-13T16:51:52.416Z,23.00
2018-12-13T16:54:22.469Z,25.07
2018-12-13T16:56:57.920Z,22.97
2018-12-13T16:59:29.403Z,22.03
2018-12-13T17:02:03.230Z,23.97
2018-12-13T17:04:34.430Z,24.60
2018-12-13T17:07:04.781Z,25.47
2018-12-13T17:09:35.748Z,30.60
2018-12-13T17:12:06.201Z,27.40
2018-12-13T17:14:38.638Z,26.53
2018-12-13T17:17:10.102Z,24.10
2018-12-13T17:19:43.565Z,26.30
2018-12-13T17:22:14.049Z,27.53
2018-12-13T17:24:46.722Z,26.77
2018-12-13T17:27:17.697Z,24.70
2018-12-13T17:29:49.506Z,25.03
2018-12-13T17:32:21.627Z,25.90
2018-12-13T17:34:51.421Z,23.93
2018-12-13T17:37:23.301Z,24.77
2018-12-13T17:39:54.048Z,24.33
2018-12-13T17:42:24.836Z,25.37
2018-12-13T17:44:55.279Z,23.60
2018-12-13T17:47:25.803Z,24.00
2018-12-13T17:49:57.385Z,22.40
2018-12-13T17:52:28.132Z,22.47
2018-12-13T17:54:58.488Z,24.20
2018-12-13T17:57:28.845Z,23.23
2018-12-13T17:59:59.811Z,20.93
2018-12-13T18:02:30.136Z,21.13
2018-12-13T18:05:00.543Z,20.30
2018-12-13T18:07:31.923Z,17.93
2018-12-13T18:10:02.511Z,19.90
2018-12-13T18:12:33.638Z,20.40
2018-12-13T18:15:03.839Z,19.10
2018-12-13T18:17:34.599Z,18.40
2018-12-13T18:20:05.859Z,18.50
2018-12-13T18:22:35.472Z,19.50
2018-12-13T18:25:06.198Z,21.30
2018-12-13T18:27:36.874Z,22.57
2018-12-13T18:30:10.058Z,22.90
2018-12-13T18:32:41.196Z,23.63
2018-12-13T18:35:12.396Z,23.13
2018-12-13T18:37:46.438Z,23.93
2018-12-13T18:40:16.044Z,22.77
2018-12-13T18:42:45.634Z,21.77
2018-12-13T18:45:17.266Z,22.33
2018-12-13T18:47:49.221Z,21.80
2018-12-13T18:50:20.974Z,24.17
2018-12-13T18:52:55.212Z,25.20
2018-12-13T18:55:25.973Z,23.33
2018-12-13T18:57:57.915Z,20.87
2018-12-13T19:00:29.742Z,20.63
2018-12-13T19:03:01.298Z,21.20
2018-12-13T19:05:31.958Z,22.87
2018-12-13T19:08:02.680Z,24.17
2018-12-13T19:10:33.699Z,19.03
2018-12-13T19:13:04.366Z,21.43
2018-12-13T19:15:35.794Z,20.80
2018-12-13T19:18:06.394Z,22.00
2018-12-13T19:20:36.107Z,22.20
2018-12-13T19:26:28.773Z,21.67
2018-12-13T19:29:03.658Z,22.57
2018-12-13T19:31:38.529Z,20.17
2018-12-13T19:34:10.356Z,21.60
2018-12-13T19:36:40.595Z,20.37
2018-12-13T19:39:10.723Z,21.57
2018-12-13T19:41:41.621Z,21.07
2018-12-13T19:44:11.980Z,21.83
2018-12-13T19:46:42.976Z,21.83
2018-12-13T19:49:13.921Z,21.30
2018-12-13T19:51:43.918Z,21.53
2018-12-13T19:54:14.479Z,21.23
2018-12-13T19:56:46.954Z,21.40
2018-12-13T19:59:21.851Z,21.07
2018-12-13T20:01:53.136Z,20.30
2018-12-13T20:04:23.656Z,21.47
2018-12-13T20:06:54.435Z,22.33
2018-12-13T20:09:24.327Z,21.30
2018-12-13T20:11:55.455Z,21.10
2018-12-13T20:14:26.511Z,20.67
2018-12-13T20:16:57.635Z,19.63
2018-12-13T20:19:28.403Z,19.37
2018-12-13T20:21:59.287Z,20.63
2018-12-13T20:24:30.567Z,20.60
2018-12-13T20:27:03.671Z,21.40
2018-12-13T20:29:33.242Z,19.80
2018-12-13T20:32:05.916Z,19.73
2018-12-13T20:34:39.313Z,19.27
2018-12-13T20:37:11.843Z,19.30
2018-12-13T20:39:41.754Z,18.30
2018-12-13T20:42:12.366Z,18.27
2018-12-13T20:44:42.550Z,18.20
2018-12-13T20:47:13.942Z,17.90
2018-12-13T20:49:45.522Z,19.43
2018-12-13T20:52:16.707Z,19.40
2018-12-13T20:54:46.575Z,19.90
2018-12-13T20:57:17.263Z,18.43
2018-12-13T20:59:47.757Z,19.93
2018-12-13T21:02:19.364Z,19.33
2018-12-13T21:04:49.882Z,20.37
2018-12-13T21:07:36.403Z,19.73
2018-12-13T21:10:11.731Z,20.50
2018-12-13T21:12:43.077Z,19.20
2018-12-13T21:15:13.157Z,20.80
2018-12-13T21:17:43.923Z,19.70
2018-12-13T21:20:14.720Z,20.87
2018-12-13T21:22:45.213Z,22.33
2018-12-13T21:25:16.331Z,21.90
2018-12-13T21:27:50.137Z,20.30
2018-12-13T21:30:22.539Z,21.17
2018-12-13T21:32:53.784Z,23.30
2018-12-13T21:35:25.156Z,21.77
2018-12-13T21:37:57.813Z,23.80
2018-12-13T21:40:28.399Z,25.20
2018-12-13T21:42:59.855Z,24.87
2018-12-13T21:45:39.448Z,25.00
2018-12-13T21:48:13.821Z,25.90
2018-12-13T21:50:46.622Z,24.27
2018-12-13T21:53:20.749Z,25.20
2018-12-13T21:56:00.501Z,23.97
2018-12-13T21:58:38.465Z,24.90
2018-12-13T22:01:13.407Z,24.90
2018-12-13T22:03:47.077Z,25.93
2018-12-13T22:06:16.823Z,24.33
2018-12-13T22:08:49.798Z,26.10
2018-12-13T22:11:26.029Z,26.10
2018-12-13T22:13:57.719Z,25.80
2018-12-13T22:16:29.106Z,27.37
2018-12-13T22:18:58.707Z,27.03
2018-12-13T22:21:29.700Z,26.50
2018-12-13T22:24:13.946Z,23.20
2018-12-13T22:26:51.764Z,25.93
2018-12-13T22:29:24.144Z,25.63
2018-12-13T22:31:55.502Z,23.20
2018-12-13T22:34:26.997Z,22.03
2018-12-13T22:36:58.203Z,23.77
2018-12-13T22:39:29.198Z,24.30
2018-12-13T22:41:59.284Z,24.60
2018-12-13T22:44:29.893Z,26.17
2018-12-13T22:47:00.223Z,26.67
2018-12-13T22:49:30.726Z,25.33
2018-12-13T22:52:00.906Z,26.27
2018-12-13T22:54:30.887Z,26.33
2018-12-13T22:57:01.898Z,28.23
2018-12-13T22:59:31.947Z,27.80
2018-12-13T23:02:02.863Z,27.03
2018-12-13T23:04:33.212Z,27.47
2018-12-13T23:07:03.975Z,28.60
2018-12-13T23:09:34.565Z,29.63
2018-12-13T23:12:07.165Z,29.57
2018-12-13T23:14:37.029Z,26.97
2018-12-13T23:17:07.451Z,29.90
2018-12-13T23:19:37.015Z,26.90
2018-12-13T23:22:11.045Z,26.77
2018-12-13T23:24:40.918Z,25.63
2018-12-13T23:27:12.474Z,26.83
2018-12-13T23:29:42.574Z,27.00
2018-12-13T23:32:13.065Z,26.93
2018-12-13T23:34:44.665Z,25.37
2018-12-13T23:37:14.738Z,24.47
2018-12-13T23:39:45.286Z,24.27
2018-12-13T23:42:16.107Z,24.70
2018-12-13T23:44:45.707Z,26.03
2018-12-13T23:47:18.310Z,25.77
2018-12-13T23:49:48.020Z,26.63
2018-12-13T23:52:22.152Z,26.27
2018-12-13T23:54:52.336Z,27.27
2018-12-13T23:57:22.348Z,26.90
2018-12-13T23:59:53.377Z,26.50
